SCCY/GXQ METAR and TAF weather

Enter ICAO airport designator
Station Type Date Time Source
SCCY METAR 2019/12/07 15:00 UTC NOAA

SCCY 071500Z 25006KT 180V320 9999 FEW040 BKN200 18/06 Q1016


Station Type Date Time Source
SCCY Decoded METAR 2019/12/07 15:00 UTC NOAA

Coyhaique, Chile (SCCY) 45-35S 072-07W
Dec 07, 2019 - 10:00 AM EST / 2019.12.07 1500 UTC
Wind: from the WSW (250 degrees) at 7 MPH (6 KT) (direction variable):0
Visibility: greater than 7 mile(s):0
Sky conditions: mostly cloudy
Temperature: 64 F (18 C)
Dew Point: 42 F (6 C)
Relative Humidity: 45%
Pressure (altimeter): 30.00 in. Hg (1016 hPa)
ob: SCCY 071500Z 25006KT 180V320 9999 FEW040 BKN200 18/06 Q1016
cycle: 15

Station Type Date Time Source
SCCY TAF 2019/12/07 12:00 UTC NOAA

TAF SCCY 071019Z 0712/0800 VRB02KT 9999 SCT040 TN09/0712Z TX20/0719Z
BECMG 0715/0717 25005KT CAVOK

Example: see airport list